createdAt,value
2022-12-13T00:02:07.349Z,100062.63
2022-12-13T00:04:56.079Z,100059.75
2022-12-13T00:07:46.038Z,100065.06
2022-12-13T00:10:34.655Z,100061.78
2022-12-13T00:13:23.263Z,100058.88
2022-12-13T00:16:14.470Z,100056.81
2022-12-13T00:19:03.170Z,100053.53
2022-12-13T00:21:51.830Z,100044.53
2022-12-13T00:24:46.019Z,100043.34
2022-12-13T00:27:34.844Z,100035.94
2022-12-13T00:30:23.510Z,100033.44
2022-12-13T00:33:12.189Z,100035.31
2022-12-13T00:36:00.910Z,100027.72
2022-12-13T00:39:00.239Z,100035.50
2022-12-13T00:41:50.343Z,100040.81
2022-12-13T00:44:38.987Z,100046.53
2022-12-13T00:47:27.571Z,100040.41
2022-12-13T00:50:16.202Z,100040.41
2022-12-13T00:53:05.155Z,100049.03
2022-12-13T00:55:54.421Z,100048.63
2022-12-13T00:58:48.728Z,100040.81
2022-12-13T01:01:40.515Z,100031.59
2022-12-13T01:04:29.162Z,100031.78
2022-12-13T01:07:17.761Z,100034.69
2022-12-13T01:10:07.208Z,100036.06
2022-12-13T01:12:56.020Z,100034.25
2022-12-13T01:15:47.407Z,100047.56
2022-12-13T01:18:36.507Z,100042.41
2022-12-13T01:21:25.061Z,100037.09
2022-12-13T01:24:13.802Z,100046.09
2022-12-13T01:27:02.449Z,100037.50
2022-12-13T01:29:51.065Z,100034.59
2022-12-13T01:32:41.219Z,100020.28
2022-12-13T01:35:29.821Z,100024.56
2022-12-13T01:38:18.661Z,100020.28
2022-12-13T01:41:08.938Z,100023.97
2022-12-13T01:44:07.451Z,100019.88
2022-12-13T01:46:55.973Z,100025.59
2022-12-13T01:49:46.039Z,100032.97
2022-12-13T01:52:35.956Z,100029.69
2022-12-13T01:55:27.244Z,100028.25
2022-12-13T01:58:16.600Z,100023.56
2022-12-13T02:01:05.460Z,100028.25
2022-12-13T02:03:54.137Z,100032.97
2022-12-13T02:06:45.953Z,100024.31
2022-12-13T02:09:34.861Z,100022.31
2022-12-13T02:12:23.695Z,100024.75
2022-12-13T02:15:20.427Z,100032.56
2022-12-13T02:18:26.327Z,100026.41
2022-12-13T02:21:20.808Z,100022.94
2022-12-13T02:24:57.119Z,100021.88
2022-12-13T02:28:00.799Z,100020.47
2022-12-13T02:30:53.672Z,100024.31
2022-12-13T02:33:53.402Z,100022.69
2022-12-13T02:36:45.984Z,100016.34
2022-12-13T02:39:36.911Z,100025.16
2022-12-13T02:42:28.324Z,100016.16
2022-12-13T02:45:21.145Z,100027.38
2022-12-13T02:48:13.513Z,100018.19
2022-12-13T02:51:02.946Z,100020.69
2022-12-13T02:53:51.576Z,100016.16
2022-12-13T02:56:40.235Z,100017.34
2022-12-13T02:59:32.036Z,100012.25
2022-12-13T03:02:31.415Z,100012.44
2022-12-13T03:05:47.552Z,100016.94
2022-12-13T03:08:44.810Z,100009.97
2022-12-13T03:11:54.452Z,100003.81
2022-12-13T03:14:49.893Z,100009.16
2022-12-13T03:17:42.372Z,100016.50
2022-12-13T03:20:32.498Z,100009.59
2022-12-13T03:23:22.250Z,100013.69
2022-12-13T03:26:13.131Z,100018.78
2022-12-13T03:29:01.746Z,100012.03
2022-12-13T03:31:50.382Z,100015.72
2022-12-13T03:34:44.793Z,100012.44
2022-12-13T03:37:35.677Z,100003.00
2022-12-13T03:40:24.227Z,99999.53
2022-12-13T03:43:13.074Z,100001.38
2022-12-13T03:46:10.793Z,99996.47
2022-12-13T03:48:59.422Z,99991.97
2022-12-13T03:51:47.998Z,99991.53
2022-12-13T03:54:38.024Z,99997.66
2022-12-13T03:57:26.680Z,99988.44
2022-12-13T04:00:16.285Z,99990.31
2022-12-13T04:03:05.054Z,99993.59
2022-12-13T04:05:53.709Z,99993.59
2022-12-13T04:08:42.547Z,99987.41
2022-12-13T04:11:50.416Z,99989.91
2022-12-13T04:14:39.048Z,99988.88
2022-12-13T04:17:27.862Z,100002.19
2022-12-13T04:20:16.481Z,100000.94
2022-12-13T04:23:10.295Z,99995.63
2022-12-13T04:26:00.636Z,99994.59
2022-12-13T04:28:54.420Z,99991.53
2022-12-13T04:31:43.516Z,99989.47
2022-12-13T04:34:37.135Z,99994.59
2022-12-13T04:37:26.401Z,99988.66
2022-12-13T04:40:15.225Z,99997.88
2022-12-13T04:43:10.620Z,100000.16
2022-12-13T04:46:00.595Z,100000.16
2022-12-13T04:48:49.404Z,99996.25
2022-12-13T04:51:38.037Z,100001.75
2022-12-13T04:54:26.671Z,99998.91
2022-12-13T04:57:24.679Z,99990.31
2022-12-13T05:00:14.876Z,99985.47
2022-12-13T05:03:05.237Z,99995.41
2022-12-13T05:05:54.051Z,99997.66
2022-12-13T05:08:42.976Z,99994.00
2022-12-13T05:11:35.531Z,99999.97
2022-12-13T05:14:24.743Z,100000.59
2022-12-13T05:17:13.426Z,100001.25
2022-12-13T05:20:03.463Z,99992.34
2022-12-13T05:22:52.111Z,100006.91
2022-12-13T05:25:40.763Z,100005.25
2022-12-13T05:28:30.987Z,100008.63
2022-12-13T05:31:22.618Z,100013.38
2022-12-13T05:34:12.385Z,100010.53
2022-12-13T05:37:02.475Z,100013.16
2022-12-13T05:39:51.107Z,100015.03
2022-12-13T05:42:39.980Z,100017.69
2022-12-13T05:45:30.548Z,100017.56
2022-12-13T05:48:24.416Z,100019.97
2022-12-13T05:51:13.705Z,100012.63
2022-12-13T05:54:03.748Z,100021.22
2022-12-13T05:56:52.424Z,100016.31
2022-12-13T05:59:41.107Z,100008.84
2022-12-13T06:02:29.756Z,100015.38
2022-12-13T06:05:18.592Z,100017.44
2022-12-13T06:08:24.917Z,100018.06
2022-12-13T06:11:31.189Z,100020.38
2022-12-13T06:14:22.380Z,100018.69
2022-12-13T06:17:11.981Z,100016.63
2022-12-13T06:20:00.678Z,100017.44
2022-12-13T06:22:49.320Z,100020.69
2022-12-13T06:25:38.005Z,100027.88
2022-12-13T06:28:28.055Z,100029.28
2022-12-13T06:31:16.804Z,100032.13
2022-12-13T06:34:14.163Z,100035.44
2022-12-13T06:37:06.967Z,100041.13
2022-12-13T06:39:55.646Z,100036.81
2022-12-13T06:42:45.069Z,100037.09
2022-12-13T06:45:35.180Z,100038.69
2022-12-13T06:48:23.883Z,100037.09
2022-12-13T06:51:12.656Z,100029.84
2022-12-13T06:54:11.993Z,100034.16
2022-12-13T06:57:00.690Z,100041.13
2022-12-13T06:59:49.538Z,100048.09
2022-12-13T07:02:39.723Z,100046.44
2022-12-13T07:05:28.460Z,100052.59
2022-12-13T07:08:22.612Z,100055.06
2022-12-13T07:11:15.777Z,100050.13
2022-12-13T07:14:04.609Z,100055.44
2022-12-13T07:16:56.641Z,100056.91
2022-12-13T07:19:51.377Z,100057.06
2022-12-13T07:22:47.251Z,100057.47
2022-12-13T07:25:37.196Z,100062.78
2022-12-13T07:28:26.630Z,100057.47
2022-12-13T07:31:16.013Z,100066.06
2022-12-13T07:34:05.009Z,100066.91
2022-12-13T07:36:55.043Z,100073.94
2022-12-13T07:39:43.708Z,100069.63
2022-12-13T07:42:32.518Z,100075.97
2022-12-13T07:45:21.188Z,100076.16
2022-12-13T07:48:09.992Z,100076.97
2022-12-13T07:51:03.230Z,100075.97
2022-12-13T07:53:53.335Z,100083.81
2022-12-13T07:56:42.055Z,100078.50
2022-12-13T07:59:30.717Z,100083.00
2022-12-13T08:02:19.360Z,100086.22
2022-12-13T08:05:25.971Z,100084.19
2022-12-13T08:08:15.995Z,100080.91
2022-12-13T08:11:07.451Z,100080.16
2022-12-13T08:13:56.320Z,100079.31
2022-12-13T08:16:45.067Z,100078.50
2022-12-13T08:19:33.988Z,100074.44
2022-12-13T08:22:24.306Z,100070.53
2022-12-13T08:25:13.204Z,100072.47
2022-12-13T08:28:03.296Z,100075.97
2022-12-13T08:30:53.004Z,100074.31
2022-12-13T08:33:43.726Z,100072.69
2022-12-13T08:36:32.459Z,100081.69
2022-12-13T08:39:21.086Z,100077.59
2022-12-13T08:42:16.655Z,100079.25
2022-12-13T08:45:10.011Z,100076.97
2022-12-13T08:48:00.150Z,100071.66
2022-12-13T08:50:48.841Z,100072.28
2022-12-13T08:53:41.007Z,100074.78
2022-12-13T08:56:30.146Z,100068.63
2022-12-13T08:59:19.219Z,100065.56
2022-12-13T09:02:11.772Z,100067.88
2022-12-13T09:05:00.493Z,100067.88
2022-12-13T09:07:49.292Z,100083.03
2022-12-13T09:10:38.923Z,100079.84
2022-12-13T09:13:31.518Z,100080.66
2022-12-13T09:16:24.451Z,100072.94
2022-12-13T09:19:26.333Z,100070.91
2022-12-13T09:22:16.373Z,100081.94
2022-12-13T09:25:23.961Z,100075.81
2022-12-13T09:28:13.160Z,100080.53
2022-12-13T09:31:01.814Z,100076.44
2022-12-13T09:33:50.545Z,100075.38
2022-12-13T09:36:40.672Z,100071.34
2022-12-13T09:39:29.312Z,100066.06
2022-12-13T09:42:21.014Z,100072.63
2022-12-13T09:45:22.209Z,100069.97
2022-12-13T09:48:13.693Z,100076.94
2022-12-13T09:51:18.073Z,100063.63
2022-12-13T09:54:18.858Z,100064.06
2022-12-13T09:57:31.353Z,100059.31
2022-12-13T10:00:34.971Z,100060.59
2022-12-13T10:03:25.156Z,100054.47
2022-12-13T10:06:23.430Z,100050.19
2022-12-13T10:09:15.305Z,100050.63
2022-12-13T10:12:04.050Z,100049.59
2022-12-13T10:14:56.456Z,100051.06
2022-12-13T10:17:54.946Z,100043.44
2022-12-13T10:20:44.295Z,100038.38
2022-12-13T10:23:59.208Z,100034.69
2022-12-13T10:26:43.034Z,100036.06
2022-12-13T10:29:31.650Z,100033.06
2022-12-13T10:32:21.110Z,100035.78
2022-12-13T10:35:25.345Z,100036.81
2022-12-13T10:38:32.051Z,100033.59
2022-12-13T10:41:36.048Z,100022.53
2022-12-13T10:44:26.458Z,100018.22
2022-12-13T10:47:18.406Z,100013.75
2022-12-13T10:50:07.799Z,100021.75
2022-12-13T10:52:57.079Z,100017.44
2022-12-13T10:55:45.741Z,100011.97
2022-12-13T10:58:39.875Z,100012.78
2022-12-13T11:01:30.753Z,99995.53
2022-12-13T11:04:28.134Z,99999.47
2022-12-13T11:07:30.719Z,100000.72
2022-12-13T11:10:27.332Z,99996.81
2022-12-13T11:13:26.208Z,100001.91
2022-12-13T11:16:23.939Z,100000.50
2022-12-13T11:19:18.401Z,100000.91
2022-12-13T11:22:07.726Z,99989.84
2022-12-13T11:25:02.829Z,99989.84
2022-12-13T11:28:02.400Z,99990.66
2022-12-13T11:30:57.985Z,99989.03
2022-12-13T11:33:58.809Z,99987.00
2022-12-13T11:36:52.302Z,99984.13
2022-12-13T11:39:44.108Z,99981.66
2022-12-13T11:42:35.407Z,99988.22
2022-12-13T11:45:26.704Z,99978.78
2022-12-13T11:48:19.286Z,99981.25
2022-12-13T11:51:11.236Z,99980.63
2022-12-13T11:54:05.795Z,99984.34
2022-12-13T11:57:00.696Z,99984.34
2022-12-13T11:59:52.833Z,99987.00
2022-12-13T12:02:54.300Z,99982.28
2022-12-13T12:05:45.070Z,99982.88
2022-12-13T12:08:37.261Z,99981.47
2022-12-13T12:11:31.040Z,99983.53
2022-12-13T12:14:23.552Z,99983.31
2022-12-13T12:17:15.164Z,99983.72
2022-12-13T12:20:04.400Z,99981.91
2022-12-13T12:22:59.430Z,99975.56
2022-12-13T12:25:52.922Z,99968.16
2022-12-13T12:28:57.110Z,99973.47
2022-12-13T12:31:55.001Z,99973.06
2022-12-13T12:34:49.140Z,99976.34
2022-12-13T12:37:45.531Z,99981.25
2022-12-13T12:41:15.517Z,99982.88
2022-12-13T12:44:07.078Z,99983.50
2022-12-13T12:50:25.914Z,99973.84
2022-12-13T12:53:33.106Z,99975.50
2022-12-13T12:56:31.987Z,99974.50
2022-12-13T12:59:29.316Z,99971.19
2022-12-13T13:02:21.272Z,99978.19
2022-12-13T13:05:16.654Z,99970.81
2022-12-13T13:08:09.258Z,99969.78
2022-12-13T13:11:01.748Z,99968.13
2022-12-13T13:14:03.793Z,99962.59
2022-12-13T13:16:53.979Z,99966.09
2022-12-13T13:19:44.139Z,99962.22
2022-12-13T13:22:34.320Z,99959.13
2022-12-13T13:25:43.908Z,99958.88
2022-12-13T13:28:42.805Z,99961.13
2022-12-13T13:32:01.407Z,99956.19
2022-12-13T13:34:53.248Z,99954.78
2022-12-13T13:37:48.772Z,99947.16
2022-12-13T13:40:38.862Z,99956.22
2022-12-13T13:43:32.823Z,99961.53
2022-12-13T13:46:21.915Z,99959.53
2022-12-13T13:49:13.074Z,99962.81
2022-12-13T13:52:24.792Z,99965.06
2022-12-13T13:55:40.772Z,99975.50
2022-12-13T13:58:54.909Z,99968.94
2022-12-13T14:02:21.788Z,99978.94
2022-12-13T14:05:53.460Z,99980.00
2022-12-13T14:08:49.810Z,99981.63
2022-12-13T14:12:14.219Z,99979.16
2022-12-13T14:15:30.098Z,99978.78
2022-12-13T14:19:13.295Z,99972.63
2022-12-13T14:22:20.686Z,99969.16
2022-12-13T14:25:25.405Z,99972.41
2022-12-13T14:28:20.580Z,99974.66
2022-12-13T14:31:21.665Z,99977.72
2022-12-13T14:34:21.456Z,99968.47
2022-12-13T14:37:23.503Z,99981.56
2022-12-13T14:40:27.532Z,99977.41
2022-12-13T14:43:25.217Z,99981.50
2022-12-13T14:46:15.820Z,99978.84
2022-12-13T14:49:07.763Z,99979.84
2022-12-13T14:52:01.334Z,99975.75
2022-12-13T14:54:58.340Z,99980.63
2022-12-13T14:57:54.058Z,99981.88
2022-12-13T15:00:43.359Z,99969.16
2022-12-13T15:03:32.383Z,99969.75
2022-12-13T15:06:21.701Z,99975.91
2022-12-13T15:09:12.619Z,99969.16
2022-12-13T15:12:23.832Z,99970.16
2022-12-13T15:15:23.499Z,99973.19
2022-12-13T15:18:20.386Z,99964.19
2022-12-13T15:21:23.149Z,99961.94
2022-12-13T15:24:14.513Z,99954.81
2022-12-13T15:27:05.049Z,99957.22
2022-12-13T15:29:54.568Z,99950.09
2022-12-13T15:33:04.571Z,99951.72
2022-12-13T15:36:05.192Z,99960.13
2022-12-13T15:39:02.123Z,99957.63
2022-12-13T15:41:51.152Z,99963.97
2022-12-13T15:44:45.796Z,99966.06
2022-12-13T15:47:36.771Z,99957.88
2022-12-13T15:50:35.137Z,99959.28
2022-12-13T15:53:27.162Z,99959.28
2022-12-13T15:56:33.434Z,99962.53
2022-12-13T15:59:27.821Z,99962.16
2022-12-13T16:02:20.715Z,99960.69
2022-12-13T16:05:11.381Z,99961.31
2022-12-13T16:08:13.590Z,99959.28
2022-12-13T16:11:03.888Z,99958.44
2022-12-13T16:13:52.523Z,99972.53
2022-12-13T16:16:47.560Z,99974.41
2022-12-13T16:19:37.863Z,99972.38
2022-12-13T16:22:26.680Z,99970.72
2022-12-13T16:25:17.211Z,99967.44
2022-12-13T16:28:06.028Z,99966.16
2022-12-13T16:31:02.609Z,99960.72
2022-12-13T16:33:51.318Z,99956.00
2022-12-13T16:36:41.673Z,99961.34
2022-12-13T16:39:30.343Z,99950.66
2022-12-13T16:42:18.926Z,99958.59
2022-12-13T16:48:22.591Z,99956.50
2022-12-13T16:51:11.538Z,99953.78
2022-12-13T16:54:01.523Z,99951.56
2022-12-13T16:56:50.937Z,99955.84
2022-12-13T16:59:39.604Z,99945.38
2022-12-13T17:02:28.411Z,99942.88
2022-12-13T17:05:17.194Z,99929.09
2022-12-13T17:08:06.017Z,99934.28
2022-12-13T17:10:58.613Z,99942.44
2022-12-13T17:13:48.244Z,99934.22
2022-12-13T17:16:36.954Z,99935.44
2022-12-13T17:19:25.689Z,99940.53
2022-12-13T17:22:14.330Z,99932.72
2022-12-13T17:25:03.121Z,99932.47
2022-12-13T17:27:53.159Z,99930.25
2022-12-13T17:30:42.052Z,99934.28
2022-12-13T17:33:31.259Z,99927.28
2022-12-13T17:36:19.895Z,99924.25
2022-12-13T17:39:08.659Z,99932.59
2022-12-13T17:41:57.578Z,99937.94
2022-12-13T17:44:47.640Z,99939.56
2022-12-13T17:47:36.519Z,99939.59
2022-12-13T17:50:25.147Z,99929.91
2022-12-13T17:53:13.727Z,99930.84
2022-12-13T17:56:03.488Z,99930.53
2022-12-13T17:58:52.104Z,99930.63
2022-12-13T18:01:42.184Z,99933.09
2022-12-13T18:04:30.820Z,99932.03
2022-12-13T18:07:19.705Z,99930.22
2022-12-13T18:10:12.560Z,99934.69
2022-12-13T18:13:01.198Z,99927.41
2022-12-13T18:15:49.849Z,99929.47
2022-12-13T18:18:40.474Z,99928.28
2022-12-13T18:21:29.023Z,99927.03
2022-12-13T18:24:18.859Z,99920.88
2022-12-13T18:27:07.595Z,99929.72
2022-12-13T18:29:56.233Z,99928.75
2022-12-13T18:32:44.813Z,99922.22
2022-12-13T18:35:35.052Z,99918.88
2022-12-13T18:38:25.735Z,99914.50
2022-12-13T18:41:17.322Z,99914.91
2022-12-13T18:44:09.786Z,99924.47
2022-12-13T18:46:58.380Z,99927.00
2022-12-13T18:49:55.167Z,99927.19
2022-12-13T18:52:45.469Z,99933.59
2022-12-13T18:55:34.320Z,99931.53
2022-12-13T18:58:23.125Z,99928.66
2022-12-13T19:01:13.831Z,99925.56
2022-12-13T19:04:02.527Z,99912.25
2022-12-13T19:06:51.122Z,99913.44
2022-12-13T19:09:41.098Z,99908.97
2022-12-13T19:12:33.585Z,99905.59
2022-12-13T19:15:22.201Z,99909.44
2022-12-13T19:18:11.219Z,99908.16
2022-12-13T19:21:00.220Z,99902.66
2022-12-13T19:23:55.839Z,99910.63
2022-12-13T19:26:47.304Z,99914.06
2022-12-13T19:29:35.908Z,99914.50
2022-12-13T19:32:25.067Z,99915.31
2022-12-13T19:35:13.817Z,99919.38
2022-12-13T19:38:02.681Z,99914.28
2022-12-13T19:40:51.678Z,99922.03
2022-12-13T19:43:42.103Z,99914.69
2022-12-13T19:46:31.018Z,99907.31
2022-12-13T19:49:19.733Z,99902.78
2022-12-13T19:52:08.427Z,99902.13
2022-12-13T19:54:57.388Z,99892.16
2022-12-13T19:57:46.030Z,99892.75
2022-12-13T20:00:36.023Z,99898.00
2022-12-13T20:03:25.085Z,99896.81
2022-12-13T20:06:16.552Z,99894.81
2022-12-13T20:09:05.319Z,99891.97
2022-12-13T20:11:54.013Z,99899.31
2022-12-13T20:14:42.672Z,99893.13
2022-12-13T20:17:33.388Z,99897.22
2022-12-13T20:20:23.791Z,99886.97
2022-12-13T20:23:14.491Z,99893.53
2022-12-13T20:26:03.706Z,99890.56
2022-12-13T20:28:52.686Z,99901.75
2022-12-13T20:31:42.103Z,99894.34
2022-12-13T20:34:38.565Z,99892.91
2022-12-13T20:37:28.201Z,99894.56
2022-12-13T20:40:18.618Z,99895.56
2022-12-13T20:43:10.542Z,99903.78
2022-12-13T20:46:04.325Z,99890.25
2022-12-13T20:48:53.869Z,99889.84
2022-12-13T20:51:43.944Z,99891.13
2022-12-13T20:54:32.948Z,99890.09
2022-12-13T20:57:21.619Z,99885.44
2022-12-13T21:00:11.747Z,99882.13
2022-12-13T21:03:00.400Z,99885.81
2022-12-13T21:05:49.494Z,99878.66
2022-12-13T21:08:55.336Z,99881.34
2022-12-13T21:11:48.494Z,99874.78
2022-12-13T21:14:37.134Z,99867.78
2022-12-13T21:17:25.861Z,99871.28
2022-12-13T21:20:14.639Z,99872.50
2022-12-13T21:23:03.750Z,99869.84
2022-12-13T21:25:56.659Z,99866.53
2022-12-13T21:28:47.911Z,99863.25
2022-12-13T21:31:37.426Z,99865.53
2022-12-13T21:34:26.248Z,99858.13
2022-12-13T21:37:14.863Z,99859.56
2022-12-13T21:40:04.099Z,99857.09
2022-12-13T21:42:54.321Z,99841.34
2022-12-13T21:45:43.168Z,99836.84
2022-12-13T21:48:31.924Z,99837.34
2022-12-13T21:51:22.074Z,99834.41
2022-12-13T21:54:12.706Z,99821.38
2022-12-13T21:57:19.196Z,99818.09
2022-12-13T22:00:11.106Z,99819.34
2022-12-13T22:02:59.794Z,99811.53
2022-12-13T22:05:48.472Z,99811.94
2022-12-13T22:08:37.669Z,99806.63
2022-12-13T22:11:26.383Z,99803.94
2022-12-13T22:14:14.963Z,99816.03
2022-12-13T22:17:05.108Z,99804.56
2022-12-13T22:19:54.017Z,99804.78
2022-12-13T22:22:44.016Z,99815.66
2022-12-13T22:25:32.811Z,99808.47
2022-12-13T22:28:21.363Z,99802.91
2022-12-13T22:31:10.058Z,99807.44
2022-12-13T22:34:00.215Z,99803.75
2022-12-13T22:36:48.791Z,99809.88
2022-12-13T22:39:37.419Z,99804.56
2022-12-13T22:42:25.988Z,99798.00
2022-12-13T22:45:14.572Z,99794.13
2022-12-13T22:48:03.441Z,99789.00
2022-12-13T22:50:53.459Z,99784.84
2022-12-13T22:53:45.719Z,99783.66
2022-12-13T22:56:34.743Z,99775.84
2022-12-13T22:59:23.331Z,99769.69
2022-12-13T23:02:13.123Z,99766.00
2022-12-13T23:05:01.890Z,99771.75
2022-12-13T23:07:52.102Z,99767.66
2022-12-13T23:10:58.429Z,99761.09
2022-12-13T23:13:48.309Z,99760.66
2022-12-13T23:16:37.726Z,99759.03
2022-12-13T23:19:50.127Z,99750.81
2022-12-13T23:22:35.358Z,99752.44
2022-12-13T23:25:25.408Z,99744.06
2022-12-13T23:28:14.129Z,99744.19
2022-12-13T23:31:02.952Z,99736.81
2022-12-13T23:33:51.890Z,99739.34
2022-12-13T23:36:40.546Z,99734.22
2022-12-13T23:39:29.484Z,99735.19
2022-12-13T23:42:19.551Z,99733.59
2022-12-13T23:45:09.461Z,99727.03
2022-12-13T23:47:58.473Z,99719.66
2022-12-13T23:50:47.659Z,99716.38
2022-12-13T23:53:36.483Z,99717.41
2022-12-13T23:56:25.773Z,99712.28
2022-12-13T23:59:19.119Z,99708.56
